Time;durP1;ratioP1;P1;durP2;ratioP2;P2;SDS_P1;SDS_P2;PMS_P1;PMS_P2;Temp;Humidity;BMP_temperature;BMP_pressure;BME280_temperature;BME280_humidity;BME280_pressure;Samples;Min_cycle;Max_cycle;Signal;HPM_P1;HPM_P2
2022/12/08 00:01:33;;;;;;;5.90;1.10;;;3.10;95.50;;;;;;5066353;28;20413;-92
2022/12/08 00:04:01;;;;;;;8.52;1.48;;;2.80;94.90;;;;;;5067076;28;20437;-91
2022/12/08 00:09:40;;;;;;;5.72;0.77;;;2.80;95.30;;;;;;5083506;28;20398;-94
2022/12/08 00:12:16;;;;;;;6.93;0.80;;;2.70;95.60;;;;;;5084009;28;20468;-90
2022/12/08 00:14:44;;;;;;;6.32;0.50;;;2.70;95.90;;;;;;5084198;28;20409;-92
2022/12/08 00:17:13;;;;;;;6.75;0.65;;;2.90;96.30;;;;;;5067640;28;20413;-92
2022/12/08 00:19:40;;;;;;;6.75;0.65;;;2.90;96.30;;;;;;5067839;28;20769;-92
2022/12/08 00:22:07;;;;;;;3.58;0.30;;;3.00;96.40;;;;;;5067059;28;20402;-92
2022/12/08 00:24:37;;;;;;;5.57;0.30;;;2.80;96.50;;;;;;5067039;28;20564;-91
2022/12/08 00:27:03;;;;;;;5.40;0.30;;;2.90;96.60;;;;;;5066706;28;20996;-92
2022/12/08 00:29:28;;;;;;;5.87;0.40;;;2.90;96.60;;;;;;5067427;28;20463;-93
2022/12/08 00:31:54;;;;;;;4.18;0.28;;;2.90;96.70;;;;;;5066577;28;20413;-92
2022/12/08 00:34:20;;;;;;;4.45;0.20;;;2.90;96.60;;;;;;5067164;28;20409;-93
2022/12/08 00:36:46;;;;;;;3.00;0.20;;;2.90;96.60;;;;;;5067412;28;20418;-92
2022/12/08 00:39:14;;;;;;;3.92;0.30;;;2.90;96.60;;;;;;5067001;28;20441;-92
2022/12/08 00:44:24;;;;;;;3.10;0.40;;;3.20;96.60;;;;;;5083185;28;20414;-91
2022/12/08 00:46:49;;;;;;;4.20;0.40;;;3.00;96.40;;;;;;5067575;28;20823;-92
2022/12/08 00:49:16;;;;;;;5.85;0.40;;;3.00;96.40;;;;;;5066360;28;21054;-93
2022/12/08 00:51:42;;;;;;;3.78;0.20;;;3.00;96.40;;;;;;5070111;28;20463;-93
2022/12/08 00:54:07;;;;;;;5.00;0.30;;;3.00;96.40;;;;;;5070414;28;20450;-93
2022/12/08 00:56:34;;;;;;;4.72;0.25;;;3.10;96.40;;;;;;5070447;28;20991;-92
2022/12/08 00:59:01;;;;;;;2.95;0.20;;;3.00;96.40;;;;;;5071132;28;20417;-92
2022/12/08 01:01:27;;;;;;;4.37;0.20;;;3.20;96.50;;;;;;5069924;28;20498;-92
2022/12/08 01:03:53;;;;;;;4.47;0.20;;;3.10;96.50;;;;;;5070686;28;20925;-90
2022/12/08 01:06:19;;;;;;;5.68;0.20;;;3.10;96.50;;;;;;5069280;28;20433;-90
2022/12/08 01:08:44;;;;;;;3.30;0.30;;;3.20;96.80;;;;;;5071358;28;20413;-91
2022/12/08 01:11:16;;;;;;;5.63;0.20;;;3.40;96.60;;;;;;5070239;28;20414;-92
2022/12/08 01:13:42;;;;;;;4.38;0.20;;;3.30;96.50;;;;;;5069981;28;20772;-93
2022/12/08 01:16:08;;;;;;;5.47;0.50;;;3.50;96.50;;;;;;5070736;28;20386;-93
2022/12/08 01:18:35;;;;;;;5.55;0.30;;;3.40;96.40;;;;;;5069626;28;20481;-94
2022/12/08 01:21:02;;;;;;;4.40;0.20;;;3.10;96.30;;;;;;5070283;28;20405;-94
2022/12/08 01:23:28;;;;;;;3.88;0.30;;;3.50;96.30;;;;;;5069631;28;20398;-92
2022/12/08 01:25:54;;;;;;;3.30;0.20;;;3.30;96.20;;;;;;5070064;28;20456;-92
2022/12/08 01:28:20;;;;;;;5.25;0.47;;;3.30;96.10;;;;;;5069850;28;20391;-91
2022/12/08 01:30:46;;;;;;;2.92;0.13;;;3.40;96.10;;;;;;5069445;28;20462;-92
2022/12/08 01:33:11;;;;;;;4.35;0.28;;;3.30;96.00;;;;;;5069835;28;20414;-92
2022/12/08 01:35:39;;;;;;;3.65;0.20;;;3.20;96.00;;;;;;5070081;23;20432;-90
2022/12/08 01:38:04;;;;;;;5.45;0.20;;;3.20;96.00;;;;;;4992414;28;20432;-91
2022/12/08 01:40:30;;;;;;;3.63;0.20;;;3.20;95.90;;;;;;4993832;28;20406;-90
2022/12/08 01:42:56;;;;;;;5.07;0.20;;;3.40;96.00;;;;;;4991953;28;20417;-91
2022/12/08 01:45:25;;;;;;;5.77;0.30;;;3.20;96.00;;;;;;4993490;28;20789;-91
2022/12/08 01:47:58;;;;;;;7.00;0.30;;;3.00;95.90;;;;;;4991713;28;20451;-91
2022/12/08 01:50:25;;;;;;;4.45;0.30;;;3.10;96.00;;;;;;4992881;28;20492;-89
2022/12/08 01:53:22;;;;;;;2.70;0.20;;;2.90;96.00;;;;;;4992262;28;20405;-90
2022/12/08 01:56:01;;;;;;;3.15;0.30;;;3.00;96.10;;;;;;4974163;28;20408;-91
2022/12/08 01:58:35;;;;;;;4.22;0.20;;;2.90;96.00;;;;;;4993401;28;20409;-92
2022/12/08 02:01:01;;;;;;;3.30;0.20;;;2.90;96.10;;;;;;4991595;28;20413;-89
2022/12/08 02:03:39;;;;;;;2.90;0.20;;;3.00;96.10;;;;;;4992570;28;20431;-90
2022/12/08 02:06:05;;;;;;;4.00;0.20;;;2.90;96.20;;;;;;4993096;28;20614;-91
2022/12/08 02:08:33;;;;;;;2.78;0.20;;;2.70;96.20;;;;;;4991884;28;20439;-90
2022/12/08 02:10:59;;;;;;;2.97;0.20;;;3.10;96.20;;;;;;4992922;28;20407;-89
2022/12/08 02:13:25;;;;;;;1.92;0.30;;;3.00;96.10;;;;;;4990780;28;20911;-90
2022/12/08 02:16:00;;;;;;;2.93;0.10;;;3.00;96.10;;;;;;4993118;28;20489;-92
2022/12/08 02:18:35;;;;;;;4.80;0.20;;;3.00;96.00;;;;;;4991595;28;20416;-93
2022/12/08 02:21:39;;;;;;;3.00;0.20;;;3.00;96.00;;;;;;4991752;28;20429;-92
2022/12/08 02:24:46;;;;;;;3.38;0.20;;;2.80;96.00;;;;;;4986166;28;20512;-94
2022/12/08 02:27:37;;;;;;;4.30;0.30;;;2.90;96.10;;;;;;4991379;28;20417;-92
2022/12/08 02:30:05;;;;;;;3.53;0.30;;;2.90;96.20;;;;;;4990800;28;20931;-92
2022/12/08 02:32:46;;;;;;;3.40;0.30;;;2.90;96.30;;;;;;4992006;28;20424;-93
2022/12/08 02:35:28;;;;;;;4.17;0.40;;;2.90;96.30;;;;;;4989592;28;20748;-92
2022/12/08 02:38:14;;;;;;;4.47;0.38;;;3.00;96.30;;;;;;5008554;28;20421;-92
2022/12/08 02:40:53;;;;;;;6.07;0.60;;;3.00;96.40;;;;;;4991812;28;20463;-91
2022/12/08 02:43:24;;;;;;;4.00;0.40;;;3.00;96.40;;;;;;4990542;28;20420;-92
2022/12/08 02:46:00;;;;;;;4.28;0.50;;;3.00;96.30;;;;;;4992258;28;20404;-94
2022/12/08 02:48:28;;;;;;;3.80;0.30;;;3.10;96.30;;;;;;4990399;28;20456;-92
2022/12/08 02:50:53;;;;;;;3.92;0.50;;;3.10;96.20;;;;;;4991823;28;20409;-92
2022/12/08 02:53:19;;;;;;;4.97;0.40;;;3.00;96.20;;;;;;4991128;28;20419;-92
2022/12/08 02:56:00;;;;;;;4.37;0.40;;;3.00;96.20;;;;;;4990971;28;20511;-93
2022/12/08 02:58:56;;;;;;;1.55;0.20;;;3.00;96.20;;;;;;4991423;28;20421;-92
2022/12/08 03:01:31;;;;;;;2.00;0.10;;;3.00;96.10;;;;;;4989488;28;20452;-93
2022/12/08 03:04:09;;;;;;;3.00;0.10;;;3.00;96.00;;;;;;4991574;28;20437;-95
2022/12/08 03:07:03;;;;;;;1.92;0.20;;;2.90;96.00;;;;;;4990843;28;20467;-92
2022/12/08 03:09:41;;;;;;;1.80;0.10;;;2.90;96.00;;;;;;4985033;28;20495;-92
2022/12/08 03:12:24;;;;;;;5.13;0.15;;;2.90;96.00;;;;;;4991801;28;20413;-92
2022/12/08 03:14:54;;;;;;;1.42;0.10;;;2.80;95.90;;;;;;4989398;28;20475;-93
2022/12/08 03:17:23;;;;;;;1.08;0.10;;;2.70;95.80;;;;;;4990625;28;20420;-92
2022/12/08 03:19:49;;;;;;;1.20;0.10;;;2.60;95.80;;;;;;4990783;28;20416;-92
2022/12/08 03:22:19;;;;;;;0.80;0.10;;;2.70;95.80;;;;;;4989900;28;20431;-91
2022/12/08 03:24:45;;;;;;;2.50;0.10;;;2.40;95.60;;;;;;4990791;28;20436;-92
2022/12/08 03:27:18;;;;;;;3.05;0.10;;;2.30;95.40;;;;;;4989093;28;20467;-93
2022/12/08 03:29:50;;;;;;;2.67;0.20;;;2.40;95.60;;;;;;4990984;28;20439;-93
2022/12/08 03:32:46;;;;;;;2.47;0.20;;;2.60;95.70;;;;;;4990020;28;20475;-91
2022/12/08 03:35:15;;;;;;;2.92;0.30;;;2.30;95.80;;;;;;4986853;28;21124;-92
2022/12/08 03:37:41;;;;;;;4.10;0.43;;;2.20;95.80;;;;;;4991136;28;20416;-91
2022/12/08 03:40:11;;;;;;;3.95;0.70;;;2.30;96.00;;;;;;4988930;28;20511;-93
2022/12/08 03:42:37;;;;;;;2.47;0.20;;;2.30;96.10;;;;;;4991366;28;20447;-91
2022/12/08 03:45:03;;;;;;;4.20;0.50;;;2.40;96.10;;;;;;4989058;28;20432;-92
2022/12/08 03:47:29;;;;;;;4.47;0.60;;;2.30;96.00;;;;;;4990509;28;20456;-91
2022/12/08 03:49:55;;;;;;;2.07;0.20;;;2.40;96.10;;;;;;4990185;28;20436;-93
2022/12/08 03:52:21;;;;;;;2.33;0.13;;;2.50;96.20;;;;;;4989655;28;20442;-91
2022/12/08 03:54:47;;;;;;;2.15;0.10;;;2.30;96.10;;;;;;4990629;28;20451;-92
2022/12/08 03:57:12;;;;;;;1.02;0.10;;;2.40;96.00;;;;;;4988897;28;20508;-91
2022/12/08 03:59:38;;;;;;;3.10;0.20;;;2.30;95.90;;;;;;4991089;28;20490;-91
2022/12/08 04:02:04;;;;;;;2.47;0.20;;;2.30;96.10;;;;;;4988240;28;20421;-92
2022/12/08 04:04:30;;;;;;;2.13;0.10;;;2.30;95.90;;;;;;4990914;28;20441;-92
2022/12/08 04:06:55;;;;;;;1.15;0.10;;;2.30;95.90;;;;;;4989307;28;20935;-92
2022/12/08 04:09:21;;;;;;;0.70;0.10;;;2.40;96.00;;;;;;4989987;28;20504;-92
2022/12/08 04:11:47;;;;;;;2.57;0.10;;;2.30;96.10;;;;;;4990321;28;20416;-92
2022/12/08 04:14:13;;;;;;;1.23;0.10;;;2.30;96.00;;;;;;4988959;28;20424;-91
2022/12/08 04:16:39;;;;;;;1.50;0.13;;;2.30;96.00;;;;;;4990492;28;20467;-92
2022/12/08 04:19:05;;;;;;;2.58;0.20;;;2.50;96.00;;;;;;4989041;28;20412;-91
2022/12/08 04:21:31;;;;;;;1.80;0.10;;;2.40;96.00;;;;;;4990592;28;20466;-93
2022/12/08 04:23:57;;;;;;;3.73;0.20;;;2.30;96.00;;;;;;4988866;28;20967;-94
2022/12/08 04:26:22;;;;;;;2.13;0.10;;;2.40;95.90;;;;;;4993507;28;20416;-91
2022/12/08 04:28:48;;;;;;;3.80;0.40;;;2.40;96.00;;;;;;4990516;28;20472;-94
2022/12/08 04:31:14;;;;;;;2.33;0.30;;;2.20;96.00;;;;;;4989866;28;20917;-92
2022/12/08 04:33:39;;;;;;;2.50;0.30;;;2.40;96.00;;;;;;4991215;28;20410;-93
2022/12/08 04:36:06;;;;;;;3.53;0.80;;;2.30;95.90;;;;;;4989371;28;20422;-93
2022/12/08 04:38:33;;;;;;;3.70;0.60;;;2.30;96.10;;;;;;4991298;28;20417;-92
2022/12/08 04:40:58;;;;;;;3.17;1.60;;;2.40;96.10;;;;;;4972576;28;20418;-92
2022/12/08 04:43:24;;;;;;;4.23;0.90;;;2.40;96.00;;;;;;4990704;28;20403;-92
2022/12/08 04:45:50;;;;;;;2.97;0.60;;;2.40;96.10;;;;;;4989497;28;20452;-93
2022/12/08 04:48:16;;;;;;;3.25;0.70;;;2.60;96.10;;;;;;4990731;28;20422;-91
2022/12/08 04:50:44;;;;;;;4.03;0.80;;;2.40;96.00;;;;;;4990748;28;20433;-93
2022/12/08 04:53:11;;;;;;;3.75;0.65;;;2.30;95.80;;;;;;4989072;28;20450;-92
2022/12/08 04:55:43;;;;;;;1.90;1.00;;;2.40;95.70;;;;;;4990718;28;20486;-92
2022/12/08 04:58:16;;;;;;;4.47;1.40;;;2.30;95.80;;;;;;4988645;28;20418;-93
2022/12/08 05:00:42;;;;;;;6.90;2.78;;;2.30;95.80;;;;;;4990757;28;20852;-93
2022/12/08 05:03:08;;;;;;;2.83;1.63;;;2.40;95.80;;;;;;4989150;28;20422;-93
2022/12/08 05:05:34;;;;;;;3.13;1.50;;;2.10;95.80;;;;;;4990178;28;20503;-92
2022/12/08 05:08:00;;;;;;;4.43;1.23;;;2.10;95.80;;;;;;4990499;28;20414;-90
2022/12/08 05:10:25;;;;;;;4.30;1.67;;;1.80;95.80;;;;;;4988779;28;20468;-92
2022/12/08 05:12:51;;;;;;;7.53;2.55;;;2.10;95.90;;;;;;4990552;28;20493;-91
2022/12/08 05:15:17;;;;;;;6.30;2.00;;;1.90;95.90;;;;;;4988557;28;20927;-91
2022/12/08 05:17:43;;;;;;;6.05;1.90;;;2.10;96.10;;;;;;4991238;28;20417;-92
2022/12/08 05:20:09;;;;;;;5.97;1.88;;;2.00;96.00;;;;;;4988317;28;20925;-92
2022/12/08 05:22:35;;;;;;;8.23;2.28;;;2.10;96.00;;;;;;4990013;28;20422;-92
2022/12/08 05:25:01;;;;;;;4.97;1.38;;;2.10;96.00;;;;;;4989407;28;20488;-92
2022/12/08 05:27:26;;;;;;;5.20;1.73;;;2.00;96.00;;;;;;4989424;28;20514;-91
2022/12/08 05:29:52;;;;;;;6.93;1.50;;;2.00;96.10;;;;;;4989961;28;20415;-93
2022/12/08 05:32:18;;;;;;;7.03;1.20;;;1.90;96.10;;;;;;4988360;28;20429;-93
2022/12/08 05:34:43;;;;;;;9.70;2.85;;;2.10;96.10;;;;;;4990133;28;20445;-92
2022/12/08 05:37:11;;;;;;;6.88;2.10;;;2.00;96.10;;;;;;4970758;28;21264;-91
2022/12/08 05:39:37;;;;;;;3.73;1.63;;;2.10;96.10;;;;;;4974101;28;20454;-93
2022/12/08 05:42:02;;;;;;;3.77;1.10;;;2.10;96.10;;;;;;4988452;28;20414;-92
2022/12/08 05:44:28;;;;;;;4.18;1.95;;;2.10;96.00;;;;;;4989666;28;20426;-93
2022/12/08 05:46:54;;;;;;;4.20;0.50;;;2.10;96.10;;;;;;4989732;28;20421;-91
2022/12/08 05:49:19;;;;;;;4.60;0.75;;;2.40;96.20;;;;;;4988589;28;20446;-91
2022/12/08 05:51:45;;;;;;;5.93;1.80;;;2.30;96.10;;;;;;4989786;28;20417;-91
2022/12/08 05:54:11;;;;;;;5.10;0.70;;;2.20;96.10;;;;;;4988284;28;20417;-92
2022/12/08 05:56:37;;;;;;;4.47;1.27;;;2.20;96.10;;;;;;4992857;28;20906;-92
2022/12/08 05:59:05;;;;;;;4.90;2.03;;;2.20;96.10;;;;;;4976785;28;20456;-92
2022/12/08 06:01:31;;;;;;;7.68;2.85;;;2.20;96.10;;;;;;4973203;28;20411;-91
2022/12/08 06:03:59;;;;;;;5.80;1.90;;;2.20;96.10;;;;;;4971758;28;20446;-91
2022/12/08 06:06:29;;;;;;;4.75;1.60;;;2.20;96.10;;;;;;4973087;28;20541;-91
2022/12/08 06:08:54;;;;;;;8.95;2.70;;;2.30;96.20;;;;;;4973131;28;20411;-91
2022/12/08 06:11:23;;;;;;;5.57;1.23;;;2.10;96.10;;;;;;4971717;28;20441;-93
2022/12/08 06:13:49;;;;;;;7.13;2.28;;;2.60;96.20;;;;;;4973662;28;20434;-92
2022/12/08 06:16:16;;;;;;;4.32;1.10;;;2.30;96.10;;;;;;4987276;28;20447;-90
2022/12/08 06:18:42;;;;;;;5.28;1.60;;;2.30;96.10;;;;;;5041991;28;20416;-91
2022/12/08 06:21:10;;;;;;;5.35;1.50;;;2.20;96.00;;;;;;5036010;28;20403;-91
2022/12/08 06:23:36;;;;;;;5.32;1.75;;;2.40;96.00;;;;;;5009100;28;20437;-91
2022/12/08 06:26:04;;;;;;;5.57;1.67;;;2.40;95.90;;;;;;5008924;28;20423;-90
2022/12/08 06:28:30;;;;;;;6.93;2.05;;;2.30;95.90;;;;;;5007632;28;20769;-91
2022/12/08 06:30:57;;;;;;;8.27;2.58;;;2.30;95.90;;;;;;5008897;28;20416;-89
2022/12/08 06:33:23;;;;;;;8.25;3.50;;;2.20;95.80;;;;;;5006957;28;20467;-90
2022/12/08 06:35:49;;;;;;;12.20;4.72;;;2.20;95.70;;;;;;5008982;28;20420;-91
2022/12/08 06:38:15;;;;;;;7.82;3.80;;;2.10;95.60;;;;;;5007553;28;20416;-91
2022/12/08 06:40:40;;;;;;;8.07;3.67;;;2.10;95.60;;;;;;5008489;28;20409;-90
2022/12/08 06:43:06;;;;;;;8.83;3.20;;;1.90;95.50;;;;;;5007920;28;20871;-89
2022/12/08 06:45:32;;;;;;;5.90;2.70;;;1.80;95.40;;;;;;5008000;28;20444;-89
2022/12/08 06:47:59;;;;;;;7.68;4.50;;;1.90;95.40;;;;;;5007728;28;20401;-89
2022/12/08 06:50:25;;;;;;;8.90;4.83;;;1.70;95.50;;;;;;5007239;28;20440;-89
2022/12/08 06:52:50;;;;;;;14.30;7.83;;;1.70;95.50;;;;;;5008597;28;20468;-92
2022/12/08 06:55:16;;;;;;;7.63;4.97;;;1.80;95.30;;;;;;5006780;28;20421;-89
2022/12/08 06:57:42;;;;;;;8.95;4.45;;;1.40;95.40;;;;;;5008540;28;20413;-91
2022/12/08 07:00:08;;;;;;;8.43;3.33;;;1.40;95.40;;;;;;5007125;28;20467;-91
2022/12/08 07:02:34;;;;;;;11.73;5.13;;;1.30;95.50;;;;;;5007680;28;20412;-92
2022/12/08 07:04:59;;;;;;;9.52;4.25;;;1.20;95.60;;;;;;5008107;28;21005;-90
2022/12/08 07:07:25;;;;;;;7.87;4.27;;;1.20;95.70;;;;;;5006967;28;20452;-90
2022/12/08 07:09:51;;;;;;;11.47;4.80;;;1.20;95.70;;;;;;5008237;28;20432;-89
2022/12/08 07:12:16;;;;;;;12.23;5.47;;;1.10;95.60;;;;;;5006648;28;20963;-89
2022/12/08 07:14:42;;;;;;;11.77;6.67;;;1.10;95.60;;;;;;5008617;28;20451;-91
2022/12/08 07:17:08;;;;;;;13.03;7.27;;;1.10;95.70;;;;;;5006667;28;20420;-90
2022/12/08 07:19:33;;;;;;;14.18;7.68;;;1.00;95.80;;;;;;5008248;28;20408;-91
2022/12/08 07:21:59;;;;;;;24.25;12.57;;;1.00;95.80;;;;;;5007562;28;20428;-91
2022/12/08 07:24:25;;;;;;;14.47;8.10;;;0.90;95.70;;;;;;5007267;28;20424;-91
2022/12/08 07:26:50;;;;;;;17.13;9.70;;;0.80;95.70;;;;;;5008098;28;20444;-92
2022/12/08 07:29:16;;;;;;;14.87;9.83;;;0.90;95.80;;;;;;5006521;28;20998;-90
2022/12/08 07:31:42;;;;;;;15.67;8.73;;;0.80;95.50;;;;;;5008024;28;20512;-92
2022/12/08 07:34:10;;;;;;;9.98;6.43;;;0.80;95.70;;;;;;5006116;28;20405;-91
2022/12/08 07:36:36;;;;;;;17.95;10.48;;;0.90;95.50;;;;;;5007937;28;20440;-91
2022/12/08 07:39:02;;;;;;;15.20;9.20;;;0.60;95.60;;;;;;4990327;28;21210;-90
2022/12/08 07:41:27;;;;;;;16.23;10.30;;;0.60;95.80;;;;;;5007387;28;20408;-91
2022/12/08 07:43:55;;;;;;;13.67;9.33;;;0.60;95.80;;;;;;5007532;28;20428;-90
2022/12/08 07:46:22;;;;;;;20.10;14.27;;;0.60;96.00;;;;;;5005970;28;20404;-91
2022/12/08 07:48:48;;;;;;;14.20;9.77;;;0.70;96.10;;;;;;5007862;28;21079;-92
2022/12/08 07:51:14;;;;;;;16.77;10.90;;;0.60;96.10;;;;;;5006015;28;20397;-91
2022/12/08 07:53:41;;;;;;;21.92;13.57;;;0.60;96.20;;;;;;5008142;28;20409;-91
2022/12/08 07:56:09;;;;;;;14.45;9.70;;;0.60;96.30;;;;;;5006571;28;20404;-90
2022/12/08 07:58:34;;;;;;;14.95;9.88;;;0.60;96.20;;;;;;5007582;28;20413;-91
2022/12/08 08:01:00;;;;;;;14.27;8.95;;;0.60;96.30;;;;;;5006301;28;20961;-92
2022/12/08 08:03:26;;;;;;;13.90;9.95;;;0.80;96.30;;;;;;5007225;28;20424;-91
2022/12/08 08:05:52;;;;;;;16.17;10.10;;;0.70;96.40;;;;;;5007225;28;21077;-91
2022/12/08 08:08:18;;;;;;;23.58;15.88;;;0.80;96.50;;;;;;5006172;28;20408;-90
2022/12/08 08:10:45;;;;;;;24.92;16.45;;;0.90;96.60;;;;;;5008067;28;20409;-92
2022/12/08 08:13:11;;;;;;;17.88;10.80;;;1.20;96.70;;;;;;5005866;28;21178;-92
2022/12/08 08:15:36;;;;;;;19.25;12.27;;;0.90;96.60;;;;;;5007557;28;20409;-91
2022/12/08 08:18:02;;;;;;;14.98;8.70;;;0.90;96.50;;;;;;5006613;28;20413;-90
2022/12/08 08:20:28;;;;;;;14.55;9.27;;;0.80;96.30;;;;;;5007136;28;20904;-92
2022/12/08 08:22:54;;;;;;;13.73;8.63;;;0.90;96.50;;;;;;5007325;28;20441;-91
2022/12/08 08:25:23;;;;;;;16.80;11.07;;;0.90;96.50;;;;;;5005941;28;20445;-91
2022/12/08 08:27:49;;;;;;;15.90;8.93;;;1.20;96.60;;;;;;5007460;28;20772;-91
2022/12/08 08:30:15;;;;;;;16.67;10.95;;;1.00;96.60;;;;;;5005782;28;20404;-91
2022/12/08 08:32:41;;;;;;;12.90;8.00;;;1.10;96.40;;;;;;5007397;28;20918;-91
2022/12/08 08:35:07;;;;;;;12.23;7.33;;;1.10;96.50;;;;;;5005701;28;20487;-91
2022/12/08 08:37:33;;;;;;;19.58;11.25;;;1.10;96.30;;;;;;5006735;28;20497;-91
2022/12/08 08:39:59;;;;;;;18.17;9.87;;;1.10;96.20;;;;;;5006523;28;20495;-90
2022/12/08 08:42:25;;;;;;;19.60;13.03;;;1.10;96.20;;;;;;5006677;28;20820;-92
2022/12/08 08:44:50;;;;;;;15.83;8.90;;;1.10;96.10;;;;;;5007135;28;20863;-90
2022/12/08 08:47:16;;;;;;;14.60;8.73;;;1.10;96.20;;;;;;5005971;28;20497;-91
2022/12/08 08:49:42;;;;;;;17.75;8.50;;;1.10;96.10;;;;;;5007339;28;20447;-90
2022/12/08 08:52:07;;;;;;;14.77;8.23;;;1.10;96.10;;;;;;5005633;28;20404;-91
2022/12/08 08:54:34;;;;;;;19.57;9.57;;;1.10;96.00;;;;;;5007485;28;20412;-90
2022/12/08 08:57:00;;;;;;;13.32;7.03;;;1.20;96.10;;;;;;5005996;28;20409;-90
2022/12/08 08:59:27;;;;;;;10.93;5.93;;;1.30;96.10;;;;;;5006663;28;20401;-90
2022/12/08 09:01:53;;;;;;;11.43;4.57;;;1.40;96.10;;;;;;5007074;28;20495;-92
2022/12/08 09:04:20;;;;;;;11.77;4.50;;;1.50;96.00;;;;;;5005716;28;20439;-90
2022/12/08 09:06:46;;;;;;;7.57;3.45;;;1.90;96.00;;;;;;5007331;28;20764;-92
2022/12/08 09:09:15;;;;;;;9.55;3.00;;;1.70;95.90;;;;;;5005788;28;20920;-91
2022/12/08 09:11:41;;;;;;;5.45;1.65;;;1.80;95.70;;;;;;5007630;28;20413;-90
2022/12/08 09:14:07;;;;;;;5.80;1.60;;;1.90;95.80;;;;;;5008904;28;20416;-90
2022/12/08 09:16:32;;;;;;;6.35;1.20;;;2.00;95.60;;;;;;5010592;28;20440;-90
2022/12/08 09:18:59;;;;;;;6.80;1.60;;;2.00;95.50;;;;;;5010028;28;20413;-90
2022/12/08 09:21:25;;;;;;;5.55;1.65;;;2.20;95.50;;;;;;5009425;28;20436;-90
2022/12/08 09:23:56;;;;;;;9.38;2.72;;;2.10;95.40;;;;;;5010410;28;20479;-90
2022/12/08 09:26:23;;;;;;;7.35;3.05;;;2.10;95.50;;;;;;5008940;28;20738;-91
2022/12/08 09:28:50;;;;;;;6.65;1.50;;;2.10;95.30;;;;;;5010279;28;20415;-90
2022/12/08 09:31:17;;;;;;;8.35;1.13;;;2.20;95.50;;;;;;5008774;28;20415;-90
2022/12/08 09:33:43;;;;;;;6.72;0.90;;;2.50;95.80;;;;;;5006028;28;20407;-89
2022/12/08 09:36:09;;;;;;;6.38;0.95;;;2.50;95.20;;;;;;4989473;28;20418;-90
2022/12/08 09:38:38;;;;;;;5.15;0.88;;;2.60;95.10;;;;;;4983045;28;20411;-90
2022/12/08 09:41:19;;;;;;;6.57;1.27;;;2.60;94.50;;;;;;4990824;28;20455;-91
2022/12/08 09:43:52;;;;;;;4.32;0.90;;;2.40;94.40;;;;;;4988601;28;20410;-91
2022/12/08 09:46:19;;;;;;;6.13;1.13;;;2.40;94.60;;;;;;4990440;28;20419;-91
2022/12/08 09:48:55;;;;;;;4.78;0.93;;;2.40;94.60;;;;;;4989139;28;20512;-91
2022/12/08 09:51:29;;;;;;;5.55;1.02;;;2.50;95.00;;;;;;4993944;28;20420;-91
2022/12/08 09:54:29;;;;;;;3.63;0.90;;;2.80;95.30;;;;;;5008364;28;20927;-90
2022/12/08 09:56:58;;;;;;;6.63;1.03;;;2.60;95.30;;;;;;5008009;28;20409;-90
2022/12/08 09:59:31;;;;;;;6.13;1.50;;;2.70;95.30;;;;;;5009473;28;20531;-91
2022/12/08 10:01:58;;;;;;;6.47;1.90;;;2.70;95.10;;;;;;5008093;28;20420;-90
2022/12/08 10:04:36;;;;;;;5.22;0.90;;;2.80;95.40;;;;;;5008667;28;20432;-91
2022/12/08 10:07:31;;;;;;;5.03;1.17;;;2.90;94.30;;;;;;5009388;28;20416;-90
2022/12/08 10:10:06;;;;;;;6.80;0.95;;;2.90;94.00;;;;;;4972272;28;20464;-90
2022/12/08 10:12:46;;;;;;;6.07;1.55;;;3.00;94.90;;;;;;4973731;28;20450;-90
2022/12/08 10:15:39;;;;;;;6.95;1.80;;;3.10;95.10;;;;;;4972536;28;20418;-89
2022/12/08 10:18:23;;;;;;;7.13;1.37;;;3.10;95.00;;;;;;4972000;28;20441;-91
2022/12/08 10:20:50;;;;;;;5.88;0.70;;;3.10;94.00;;;;;;4976133;28;20580;-91
2022/12/08 10:23:30;;;;;;;6.20;1.10;;;3.00;93.80;;;;;;5007548;28;20409;-91
2022/12/08 10:26:01;;;;;;;7.25;2.17;;;2.90;93.90;;;;;;5008460;28;20966;-91
2022/12/08 10:28:26;;;;;;;6.10;1.52;;;2.80;94.30;;;;;;5008488;28;20559;-90
2022/12/08 10:30:52;;;;;;;8.30;3.63;;;2.80;94.30;;;;;;5008084;28;20571;-90
2022/12/08 10:33:20;;;;;;;6.55;2.10;;;2.70;94.60;;;;;;5009042;28;20780;-90
2022/12/08 10:35:52;;;;;;;6.80;2.53;;;2.80;94.60;;;;;;5007168;28;20466;-91
2022/12/08 10:38:37;;;;;;;7.32;3.30;;;2.60;94.30;;;;;;4992656;28;20417;-91
2022/12/08 10:41:10;;;;;;;6.85;3.60;;;2.60;94.40;;;;;;4991713;28;20899;-90
2022/12/08 10:43:42;;;;;;;9.75;3.92;;;2.60;94.70;;;;;;5008129;28;20931;-90
2022/12/08 10:46:24;;;;;;;11.32;3.22;;;2.80;95.30;;;;;;5008696;28;20424;-89
2022/12/08 10:48:52;;;;;;;42.10;27.70;;;3.20;96.20;;;;;;5006865;28;20540;-89
2022/12/08 10:51:23;;;;;;;24.55;17.67;;;3.60;94.90;;;;;;5008947;28;20409;-90
2022/12/08 10:53:49;;;;;;;15.85;10.63;;;4.10;96.40;;;;;;5007215;28;20448;-91
2022/12/08 10:56:15;;;;;;;19.70;14.07;;;4.60;95.90;;;;;;5008234;28;20421;-91
2022/12/08 10:58:46;;;;;;;20.85;15.18;;;4.90;94.30;;;;;;5008397;28;20409;-90
2022/12/08 11:01:20;;;;;;;20.00;12.80;;;5.00;93.10;;;;;;5007148;28;20409;-90
2022/12/08 11:03:53;;;;;;;22.10;15.18;;;5.00;92.00;;;;;;5008489;28;20773;-90
2022/12/08 11:06:39;;;;;;;14.37;7.80;;;5.00;91.00;;;;;;5006774;28;20596;-90
2022/12/08 11:09:14;;;;;;;16.85;9.48;;;5.10;90.30;;;;;;4991192;28;20930;-91
2022/12/08 11:11:46;;;;;;;4.65;0.80;;;5.30;92.80;;;;;;5007720;28;20409;-90
2022/12/08 11:14:18;;;;;;;6.83;1.50;;;5.40;90.90;;;;;;5006605;28;20401;-90
2022/12/08 11:16:44;;;;;;;6.32;0.90;;;5.40;92.50;;;;;;5003159;28;20513;-91
2022/12/08 11:19:15;;;;;;;3.08;0.20;;;5.40;91.30;;;;;;4970587;28;20563;-90
2022/12/08 11:21:41;;;;;;;2.78;0.20;;;5.20;90.10;;;;;;4971560;28;20485;-89
2022/12/08 11:24:13;;;;;;;1.80;0.00;;;5.00;90.70;;;;;;4970816;28;20558;-91
2022/12/08 11:26:42;;;;;;;1.10;0.10;;;4.80;91.50;;;;;;4971411;28;20820;-92
2022/12/08 11:29:11;;;;;;;0.93;0.10;;;4.70;91.90;;;;;;5004557;28;20505;-90
2022/12/08 11:31:51;;;;;;;1.40;0.00;;;4.60;92.20;;;;;;4971287;28;20429;-91
2022/12/08 11:34:23;;;;;;;0.45;0.00;;;4.60;92.60;;;;;;4971632;28;20906;-89
2022/12/08 11:36:51;;;;;;;1.20;0.00;;;4.60;91.80;;;;;;4969706;28;20525;-90
2022/12/08 11:39:17;;;;;;;0.80;0.00;;;4.40;91.50;;;;;;4971910;28;20417;-89
2022/12/08 11:41:44;;;;;;;0.93;0.00;;;4.40;92.60;;;;;;4971209;28;20453;-90
2022/12/08 11:44:28;;;;;;;1.50;0.00;;;4.40;93.40;;;;;;4970850;28;20462;-90
2022/12/08 11:47:14;;;;;;;0.63;0.00;;;4.70;93.70;;;;;;4971943;28;20426;-90
2022/12/08 11:49:42;;;;;;;0.40;0.03;;;5.10;92.40;;;;;;4970601;28;20422;-91
2022/12/08 11:52:28;;;;;;;0.70;0.00;;;5.40;92.00;;;;;;4973932;28;20408;-91
2022/12/08 11:55:18;;;;;;;0.52;0.17;;;5.60;91.40;;;;;;4988770;28;20420;-89
2022/12/08 11:57:44;;;;;;;0.50;0.20;;;6.10;90.60;;;;;;4990657;28;20423;-89
2022/12/08 12:00:13;;;;;;;0.40;0.00;;;6.60;91.30;;;;;;4990620;28;20417;-90
2022/12/08 12:02:43;;;;;;;0.65;0.03;;;6.80;88.50;;;;;;5004293;28;20405;-90
2022/12/08 12:05:23;;;;;;;0.68;0.10;;;7.00;89.70;;;;;;5003384;28;20444;-90
2022/12/08 12:08:27;;;;;;;0.32;0.00;;;7.40;87.40;;;;;;4986929;28;20421;-88
2022/12/08 12:12:11;;;;;;;1.20;0.00;;;7.70;83.90;;;;;;4970211;28;20429;-89
2022/12/08 12:14:17;;;;;;;0.20;0.00;;;7.60;82.80;;;;;;5006446;28;20404;-89
2022/12/08 12:16:55;;;;;;;0.35;0.00;;;7.30;83.20;;;;;;5006698;28;20409;-89
2022/12/08 12:19:22;;;;;;;0.70;0.00;;;6.90;83.00;;;;;;5006061;28;20528;-89
2022/12/08 12:21:52;;;;;;;0.95;0.05;;;6.70;84.00;;;;;;5006967;28;20405;-89
2022/12/08 12:24:25;;;;;;;0.65;0.00;;;6.50;86.10;;;;;;5005321;28;20973;-90
2022/12/08 12:26:58;;;;;;;0.98;0.10;;;6.30;87.80;;;;;;5007638;28;20409;-89
2022/12/08 12:29:28;;;;;;;1.42;0.10;;;6.10;88.80;;;;;;4993907;28;20438;-88
2022/12/08 12:31:58;;;;;;;0.95;0.00;;;6.00;87.50;;;;;;4971342;28;20467;-90
2022/12/08 12:34:34;;;;;;;1.38;0.20;;;5.90;89.40;;;;;;4985793;28;20812;-89
2022/12/08 12:37:13;;;;;;;2.00;0.30;;;5.80;89.80;;;;;;4985971;28;20418;-89
2022/12/08 12:39:59;;;;;;;2.30;0.40;;;5.70;90.20;;;;;;4978346;28;20421;-90
2022/12/08 12:42:49;;;;;;;2.33;0.50;;;5.50;90.30;;;;;;5035432;28;20413;-89
2022/12/08 12:45:15;;;;;;;2.78;0.40;;;5.30;90.60;;;;;;5001829;28;20898;-90
2022/12/08 12:47:46;;;;;;;2.33;0.60;;;5.10;90.30;;;;;;5043756;28;20405;-89
2022/12/08 12:50:14;;;;;;;2.15;0.70;;;4.80;91.10;;;;;;5040478;28;20446;-90
2022/12/08 12:52:41;;;;;;;1.73;0.10;;;4.60;91.60;;;;;;5010459;28;20416;-91
2022/12/08 12:55:09;;;;;;;1.60;0.00;;;4.40;91.80;;;;;;5009800;28;20412;-89
2022/12/08 12:57:38;;;;;;;2.13;0.10;;;4.30;92.00;;;;;;5010099;28;20420;-91
2022/12/08 13:00:03;;;;;;;0.88;0.00;;;4.10;92.40;;;;;;5010323;28;20452;-89
2022/12/08 13:02:42;;;;;;;1.70;0.00;;;4.10;92.80;;;;;;5009256;28;20459;-91
2022/12/08 13:05:28;;;;;;;1.52;0.10;;;4.00;92.90;;;;;;5010338;28;20448;-89
2022/12/08 13:08:02;;;;;;;1.30;0.10;;;4.10;93.50;;;;;;5009108;28;20555;-88
2022/12/08 13:10:27;;;;;;;0.70;0.00;;;4.20;94.30;;;;;;5009954;28;20499;-89
2022/12/08 13:13:17;;;;;;;0.90;0.10;;;4.20;93.60;;;;;;5009939;28;20584;-88
2022/12/08 13:15:46;;;;;;;2.70;0.20;;;4.30;94.00;;;;;;5008844;28;20424;-90